Time;durP1;ratioP1;P1;durP2;ratioP2;P2;SDS_P1;SDS_P2;PMS_P1;PMS_P2;Temp;Humidity;BMP_temperature;BMP_pressure;BME280_temperature;BME280_humidity;BME280_pressure;Samples;Min_cycle;Max_cycle;Signal;HPM_P1;HPM_P2
2023/05/28 00:01:18;;;;;;;;;;;;;;;;;;4880267;29;19927;-71
2023/05/28 00:03:46;;;;;;;;;;;;;;;;;;4880265;29;19930;-71
2023/05/28 00:06:14;;;;;;;;;;;;;;;;;;4880053;29;19923;-71
2023/05/28 00:08:41;;;;;;;;;;;;;;;;;;4880045;29;19931;-71
2023/05/28 00:11:09;;;;;;;;;;;;;;;;;;4879893;29;20308;-71
2023/05/28 00:13:37;;;;;;;;;;;;;;;;;;4880647;29;20384;-71
2023/05/28 00:16:05;;;;;;;;;;;;;;;;;;4880929;29;20381;-71
2023/05/28 00:18:34;;;;;;;;;;;;;;;;;;4880759;29;19924;-71
2023/05/28 00:21:02;;;;;;;;;;;9.70;99.90;;;;;;4881433;29;19934;-71
2023/05/28 00:23:29;;;;;;;;;;;9.80;99.90;;;;;;4880818;29;19923;-71
2023/05/28 00:25:55;;;;;;;;;;;9.70;99.90;;;;;;4880640;29;19958;-71
2023/05/28 00:28:22;;;;;;;;;;;9.70;99.90;;;;;;4880633;29;19931;-71
2023/05/28 00:30:49;;;;;;;;;;;9.70;99.90;;;;;;4881231;29;19931;-71
2023/05/28 05:57:51;;;;;;;2.75;2.17;;;28.40;54.60;;;;;;5836917;23;20199;-74
2023/05/28 06:00:19;;;;;;;3.58;2.25;;;28.70;53.80;;;;;;4900731;29;20222;-73
2023/05/28 06:02:46;;;;;;;2.00;1.90;;;29.30;54.00;;;;;;4900596;29;20232;-72
2023/05/28 06:05:13;;;;;;;2.10;2.00;;;29.70;54.20;;;;;;4900785;29;20256;-72
2023/05/28 06:07:40;;;;;;;2.10;1.83;;;30.10;53.60;;;;;;4908875;29;20630;-73
2023/05/28 06:10:08;;;;;;;2.28;2.08;;;30.60;53.50;;;;;;4919478;29;20204;-73
2023/05/28 06:12:34;;;;;;;1.90;1.80;;;31.00;53.00;;;;;;4919190;29;20669;-73
2023/05/28 06:15:03;;;;;;;2.88;2.35;;;31.20;52.50;;;;;;4919506;29;20311;-73
2023/05/28 06:17:31;;;;;;;3.33;2.38;;;31.10;50.70;;;;;;4919078;29;20570;-74
2023/05/28 06:19:59;;;;;;;2.28;2.08;;;31.40;50.10;;;;;;4919239;29;20201;-74
2023/05/28 06:22:26;;;;;;;2.05;1.95;;;31.50;49.20;;;;;;4910174;23;20237;-73
2023/05/28 06:24:54;;;;;;;2.33;2.13;;;31.90;51.00;;;;;;4900625;29;20252;-73
2023/05/28 06:27:22;;;;;;;2.25;2.05;;;;;;;;;;4900144;29;20555;-74
2023/05/28 06:29:50;;;;;;;2.33;2.13;;;;;;;;;;4900510;29;20257;-74
2023/05/28 06:32:18;;;;;;;1.80;1.70;;;;;;;;;;4915714;29;20310;-75
2023/05/28 06:34:47;;;;;;;2.58;2.08;;;;;;;;;;4919301;29;20297;-74
2023/05/28 06:37:15;;;;;;;1.88;1.55;;;;;;;;;;4918816;29;20208;-74
2023/05/28 06:39:45;;;;;;;3.08;2.05;;;;;;;;;;4918701;29;20248;-73
2023/05/28 06:42:12;;;;;;;2.42;2.22;;;;;;;;;;4919071;29;20224;-72
2023/05/28 06:44:46;;;;;;;1.75;1.65;;;;;;;;;;4918624;29;20262;-73
2023/05/28 06:47:19;;;;;;;2.47;2.25;;;;;;;;;;4918691;29;20192;-73
2023/05/28 06:49:50;;;;;;;1.90;1.80;;;;;;;;;;4918579;29;20197;-74
2023/05/28 06:52:44;;;;;;;1.80;1.67;;;;;;;;;;4918698;29;20315;-73
2023/05/28 06:55:19;;;;;;;4.03;2.40;;;;;;;;;;4919118;29;20189;-73
2023/05/28 06:57:57;;;;;;;4.13;2.72;;;;;;;;;;4918614;29;20191;-73
2023/05/28 07:00:38;;;;;;;3.13;2.35;;;;;;;;;;4919085;29;20220;-73
2023/05/28 07:03:21;;;;;;;3.60;2.15;;;;;;;;;;4918509;29;20193;-74
2023/05/28 07:05:49;;;;;;;3.42;2.50;;;34.30;46.30;;;;;;4918384;29;20203;-73
2023/05/28 07:08:16;;;;;;;3.00;2.10;;;34.30;32.70;;;;;;4917980;29;20641;-73
2023/05/28 07:10:42;;;;;;;2.50;2.30;;;33.90;31.80;;;;;;4918177;29;20220;-73
2023/05/28 07:13:09;;;;;;;2.92;2.45;;;33.50;30.90;;;;;;4918221;29;20695;-72
2023/05/28 07:15:36;;;;;;;2.25;2.13;;;33.10;28.60;;;;;;4918587;29;20303;-73
2023/05/28 07:18:03;;;;;;;5.97;2.20;;;32.50;29.50;;;;;;4917757;29;20200;-72
2023/05/28 07:20:29;;;;;;;2.15;1.90;;;32.30;30.00;;;;;;4918307;29;20224;-73
2023/05/28 07:22:57;;;;;;;3.78;2.53;;;32.50;29.20;;;;;;4918550;29;20196;-73
2023/05/28 07:25:24;;;;;;;2.90;2.35;;;32.20;29.60;;;;;;4918924;29;20212;-73
2023/05/28 07:27:51;;;;;;;4.20;2.30;;;31.80;29.20;;;;;;4918155;29;20613;-72
2023/05/28 07:30:18;;;;;;;3.28;2.20;;;31.70;30.00;;;;;;4918831;29;20228;-72
2023/05/28 07:32:44;;;;;;;2.83;2.58;;;32.00;30.00;;;;;;4918267;29;20590;-72
2023/05/28 07:35:11;;;;;;;3.25;2.20;;;32.00;29.80;;;;;;4918104;29;20209;-72
2023/05/28 07:37:38;;;;;;;4.90;2.67;;;31.90;30.10;;;;;;4918126;29;20201;-72
2023/05/28 07:40:08;;;;;;;2.67;2.47;;;31.60;29.40;;;;;;4917921;29;20228;-72
2023/05/28 07:42:35;;;;;;;6.00;2.78;;;30.90;30.90;;;;;;4917838;29;20225;-72
2023/05/28 07:45:02;;;;;;;4.15;2.67;;;30.80;30.00;;;;;;4918014;29;20576;-72
2023/05/28 07:47:29;;;;;;;4.80;2.97;;;30.20;30.60;;;;;;4918026;29;20205;-71
2023/05/28 07:49:55;;;;;;;5.90;3.17;;;29.50;32.00;;;;;;4917924;29;20201;-71
2023/05/28 07:52:22;;;;;;;5.10;2.90;;;29.30;33.10;;;;;;4917663;29;20221;-72
2023/05/28 07:54:48;;;;;;;2.38;2.17;;;28.40;33.10;;;;;;4918178;29;20610;-71
2023/05/28 07:57:17;;;;;;;2.40;2.00;;;27.50;33.70;;;;;;4917992;29;20268;-71
2023/05/28 07:59:43;;;;;;;3.38;2.40;;;26.70;35.70;;;;;;4917686;29;20291;-71
2023/05/28 08:02:10;;;;;;;4.05;2.60;;;25.90;35.90;;;;;;4919103;29;20233;-72
2023/05/28 08:04:36;;;;;;;5.03;2.80;;;25.10;37.00;;;;;;4917885;29;20209;-74
2023/05/28 08:07:04;;;;;;;5.22;3.00;;;24.60;37.80;;;;;;4917763;29;20205;-74
2023/05/28 08:09:30;;;;;;;3.40;2.30;;;24.20;37.40;;;;;;4917527;29;20209;-73
2023/05/28 08:11:57;;;;;;;3.53;2.70;;;23.80;37.90;;;;;;4917362;29;20643;-74
2023/05/28 08:14:25;;;;;;;2.80;2.25;;;23.50;38.30;;;;;;4917354;29;20290;-70
2023/05/28 08:16:52;;;;;;;6.10;3.00;;;23.10;39.70;;;;;;4917651;29;20205;-71
2023/05/28 08:19:19;;;;;;;5.90;2.83;;;22.90;39.60;;;;;;4917437;29;20208;-70
2023/05/28 08:21:45;;;;;;;3.80;2.50;;;22.40;44.30;;;;;;4917008;29;20240;-71
2023/05/28 08:24:13;;;;;;;9.52;3.33;;;22.10;45.10;;;;;;4917771;29;20243;-71
2023/05/28 08:26:40;;;;;;;4.72;3.00;;;21.70;42.20;;;;;;4917170;29;20209;-72
2023/05/28 08:29:07;;;;;;;7.20;3.03;;;21.30;42.50;;;;;;4923241;29;20215;-71
2023/05/28 08:31:35;;;;;;;;;;;21.10;44.10;;;;;;4926896;29;20303;-71
2023/05/28 08:34:02;;;;;;;;;;;21.10;45.90;;;;;;4925959;29;20419;-71
2023/05/28 08:36:29;;;;;;;;;;;20.90;46.10;;;;;;4925383;29;20272;-70
2023/05/28 08:38:56;;;;;;;;;;;20.80;47.50;;;;;;4926425;29;19923;-71
2023/05/28 08:41:22;;;;;;;;;;;20.90;47.00;;;;;;4924563;29;19927;-71
2023/05/28 08:43:49;;;;;;;;;;;20.90;47.60;;;;;;4924568;29;19922;-71
2023/05/28 08:46:16;;;;;;;;;;;20.90;47.70;;;;;;4924421;29;19923;-71
2023/05/28 08:48:46;;;;;;;7.03;3.43;;;20.80;47.80;;;;;;4923774;29;20470;-70
2023/05/28 08:51:14;;;;;;;4.60;3.03;;;20.90;47.80;;;;;;4925564;29;20480;-71
2023/05/28 08:53:44;;;;;;;5.20;2.92;;;20.90;47.80;;;;;;4925131;29;20299;-70
2023/05/28 08:56:12;;;;;;;4.80;3.00;;;20.90;48.70;;;;;;4925258;29;20193;-71
2023/05/28 08:58:39;;;;;;;6.25;2.78;;;20.90;49.30;;;;;;4923461;29;20205;-72
2023/05/28 09:01:07;;;;;;;4.60;2.63;;;21.00;48.40;;;;;;4924423;29;20229;-72
2023/05/28 09:03:36;;;;;;;3.05;2.47;;;21.10;49.30;;;;;;4924868;29;20540;-72
2023/05/28 09:06:04;;;;;;;9.40;3.22;;;21.20;49.20;;;;;;4924651;29;20748;-71
2023/05/28 09:08:31;;;;;;;4.47;2.72;;;21.30;49.00;;;;;;4925421;29;20699;-74
2023/05/28 09:11:09;;;;;;;6.07;2.95;;;21.20;48.20;;;;;;4925494;29;20232;-74
2023/05/28 09:13:36;;;;;;;3.85;2.53;;;21.30;49.20;;;;;;4924410;29;20189;-74
2023/05/28 09:16:03;;;;;;;9.25;5.78;;;21.20;48.40;;;;;;4925239;29;20204;-74
2023/05/28 09:18:30;;;;;;;4.55;3.30;;;21.20;48.10;;;;;;4924261;29;20261;-74
2023/05/28 09:21:01;;;;;;;4.60;3.42;;;21.00;47.60;;;;;;4923769;29;20233;-74
2023/05/28 09:23:31;;;;;;;6.15;3.53;;;21.00;49.00;;;;;;4924771;29;20244;-74
2023/05/28 09:26:01;;;;;;;3.65;2.58;;;21.10;48.40;;;;;;4924845;29;20216;-75
2023/05/28 09:28:28;;;;;;;4.03;2.83;;;21.10;48.50;;;;;;4924721;29;20240;-74
2023/05/28 09:31:02;;;;;;;5.90;3.20;;;21.00;49.30;;;;;;4925968;29;20256;-75
2023/05/28 09:33:29;;;;;;;4.60;2.45;;;20.80;49.60;;;;;;4922582;29;20188;-78
2023/05/28 09:35:59;;;;;;;6.05;3.38;;;20.90;52.00;;;;;;4921113;29;20201;-77
2023/05/28 09:38:27;;;;;;;4.50;3.35;;;21.10;50.70;;;;;;4919969;29;20189;-77
2023/05/28 09:40:55;;;;;;;6.63;3.28;;;21.20;51.50;;;;;;4919697;29;20232;-73
2023/05/28 09:43:28;;;;;;;6.43;3.10;;;21.20;50.60;;;;;;4919756;29;20243;-76
2023/05/28 09:46:08;;;;;;;4.85;2.33;;;21.30;53.50;;;;;;4920733;29;20236;-75
2023/05/28 09:48:35;;;;;;;3.67;2.75;;;21.30;53.20;;;;;;4924045;29;20212;-75
2023/05/28 09:51:05;;;;;;;4.13;2.85;;;21.40;54.60;;;;;;4923117;29;20296;-75
2023/05/28 09:53:33;;;;;;;7.18;2.78;;;21.40;53.70;;;;;;4919242;29;20205;-75
2023/05/28 09:56:04;;;;;;;4.70;3.03;;;21.30;52.70;;;;;;4919659;29;20201;-76
2023/05/28 09:58:34;;;;;;;4.03;2.75;;;21.30;53.20;;;;;;4919187;29;20660;-75
2023/05/28 10:01:05;;;;;;;3.75;2.75;;;21.40;51.60;;;;;;4919576;29;20239;-75
2023/05/28 10:03:38;;;;;;;6.28;2.92;;;21.30;50.50;;;;;;4919208;29;20191;-76
2023/05/28 10:06:10;;;;;;;4.45;2.38;;;21.30;50.50;;;;;;4919195;29;20197;-76
2023/05/28 10:08:38;;;;;;;4.05;2.78;;;;;;;;;;4918087;29;20970;-72
2023/05/28 10:11:10;;;;;;;4.05;2.30;;;21.20;34.30;;;;;;4918612;29;20712;-72
2023/05/28 10:13:37;;;;;;;3.08;2.50;;;21.20;34.70;;;;;;4918748;29;20204;-72
2023/05/28 10:16:04;;;;;;;4.35;2.70;;;21.30;35.00;;;;;;4919074;29;20204;-72
2023/05/28 10:18:31;;;;;;;3.55;2.33;;;21.20;33.60;;;;;;4918742;29;20634;-72
2023/05/28 10:20:59;;;;;;;3.72;2.80;;;21.30;33.60;;;;;;4918358;29;20613;-72
2023/05/28 10:23:26;;;;;;;5.60;3.10;;;21.30;33.80;;;;;;4918834;29;20193;-72
2023/05/28 10:25:54;;;;;;;4.53;2.20;;;21.30;33.20;;;;;;4918798;29;20209;-72
2023/05/28 10:28:23;;;;;;;3.15;2.40;;;21.30;33.70;;;;;;4918748;29;20208;-71
2023/05/28 10:31:03;;;;;;;5.28;2.92;;;21.40;33.30;;;;;;4918796;29;20228;-75
2023/05/28 10:33:30;;;;;;;;;;;21.40;38.50;;;;;;4919514;29;20052;-69
2023/05/28 10:35:57;;;;;;;;;;;21.30;34.10;;;;;;4919242;29;20021;-70
2023/05/28 10:38:24;;;;;;;;;;;21.30;33.50;;;;;;4919869;29;19923;-69
2023/05/28 10:40:51;;;;;;;;;;;21.30;31.90;;;;;;4920132;29;19930;-70
2023/05/28 10:43:36;;;;;;;;;;;21.10;31.00;;;;;;4919366;29;19923;-69
2023/05/28 10:46:04;;;;;;;;;;;21.00;31.40;;;;;;4919225;29;20405;-70
2023/05/28 10:48:31;;;;;;;;;;;21.10;31.90;;;;;;4919406;29;19927;-70
2023/05/28 10:50:58;;;;;;;;;;;21.10;32.30;;;;;;4919169;29;19923;-70
2023/05/28 10:53:25;;;;;;;;;;;21.10;32.30;;;;;;4918599;29;19923;-69
2023/05/28 10:55:53;;;;;;;;;;;21.10;33.00;;;;;;4919217;29;19923;-69
2023/05/28 10:58:33;;;;;;;;;;;21.10;33.20;;;;;;4919297;29;19922;-69
2023/05/28 11:01:19;;;;;;;;;;;21.20;35.60;;;;;;4919009;29;19927;-68
2023/05/28 11:03:46;;;;;;;;;;;21.30;35.90;;;;;;4918662;29;20383;-68
2023/05/28 11:06:13;;;;;;;;;;;21.30;36.30;;;;;;4919184;29;19923;-67
2023/05/28 11:08:41;;;;;;;;;;;21.40;38.40;;;;;;4918961;29;19923;-69
2023/05/28 11:11:08;;;;;;;;;;;21.50;37.80;;;;;;4918902;29;19962;-69
2023/05/28 11:13:35;;;;;;;;;;;21.50;39.00;;;;;;4918869;29;20301;-69
2023/05/28 11:16:10;;;;;;;;;;;21.50;41.50;;;;;;4919287;29;19923;-69
2023/05/28 11:18:36;;;;;;;;;;;21.50;34.00;;;;;;4918667;29;19923;-69
2023/05/28 11:21:04;;;;;;;4.45;2.53;;;21.50;36.40;;;;;;4918141;29;19923;-75
2023/05/28 11:23:31;;;;;;;4.55;2.55;;;21.50;37.30;;;;;;4920138;29;20204;-76
2023/05/28 11:25:58;;;;;;;4.28;2.38;;;21.70;37.70;;;;;;4921715;29;20643;-76
2023/05/28 11:28:24;;;;;;;2.38;2.13;;;21.60;34.60;;;;;;4921445;29;20593;-77
2023/05/28 11:30:52;;;;;;;4.38;2.25;;;21.50;33.40;;;;;;4920457;29;20225;-76
2023/05/28 11:33:20;;;;;;;2.67;2.00;;;21.60;33.80;;;;;;4920164;29;20681;-78
2023/05/28 11:35:56;;;;;;;3.63;2.10;;;21.70;33.80;;;;;;4920126;29;20201;-76
2023/05/28 11:38:23;;;;;;;3.92;1.92;;;21.70;33.90;;;;;;4919957;29;20212;-78
2023/05/28 11:40:49;;;;;;;4.10;2.35;;;21.70;34.30;;;;;;4919099;29;20236;-76
2023/05/28 11:43:16;;;;;;;5.53;3.78;;;21.70;33.30;;;;;;4919062;29;20209;-76
2023/05/28 11:45:43;;;;;;;2.53;2.33;;;21.70;33.40;;;;;;4919611;29;20201;-76
2023/05/28 11:48:12;;;;;;;2.63;2.25;;;21.70;33.30;;;;;;4922316;29;20609;-76
2023/05/28 11:50:41;;;;;;;5.68;2.65;;;21.70;33.50;;;;;;4921038;29;20201;-75
2023/05/28 11:53:08;;;;;;;2.92;2.38;;;21.80;33.60;;;;;;4920712;29;20205;-76
2023/05/28 11:55:35;;;;;;;3.45;2.08;;;21.70;32.00;;;;;;4920605;29;20209;-76
2023/05/28 11:58:01;;;;;;;2.55;1.83;;;21.70;32.80;;;;;;4919002;29;20575;-75
2023/05/28 12:00:35;;;;;;;4.15;2.88;;;21.70;33.10;;;;;;4919770;29;20209;-75
2023/05/28 12:03:02;;;;;;;2.42;2.22;;;21.70;32.60;;;;;;4919958;29;20189;-76
2023/05/28 12:05:37;;;;;;;2.53;2.33;;;21.60;31.10;;;;;;4920200;29;20211;-76
2023/05/28 12:08:06;;;;;;;3.13;2.40;;;21.60;30.60;;;;;;4920301;29;20224;-75
2023/05/28 12:10:33;;;;;;;6.82;2.15;;;21.70;31.20;;;;;;4920188;29;20276;-76
2023/05/28 12:13:01;;;;;;;4.00;2.17;;;21.70;31.60;;;;;;4920136;29;20209;-77
2023/05/28 12:15:29;;;;;;;3.22;2.67;;;21.70;32.10;;;;;;4920095;29;20205;-75
2023/05/28 19:31:27;;;;;;;1.48;1.48;;;17.20;52.10;;;;;;5481022;23;20234;-70
2023/05/28 19:33:54;;;;;;;2.47;2.28;;;17.00;53.10;;;;;;4898813;29;20244;-70
2023/05/28 19:36:21;;;;;;;1.70;1.60;;;16.90;54.20;;;;;;4898830;29;20253;-70
2023/05/28 19:38:47;;;;;;;2.10;1.98;;;16.80;56.00;;;;;;4898898;29;20288;-72
2023/05/28 19:41:14;;;;;;;1.77;1.67;;;16.70;57.10;;;;;;4898166;29;20240;-68
2023/05/28 19:43:41;;;;;;;1.90;1.80;;;16.50;58.00;;;;;;4898424;29;20206;-68
2023/05/28 19:46:08;;;;;;;1.73;1.73;;;16.40;59.20;;;;;;4899095;29;20212;-68
2023/05/28 19:48:36;;;;;;;1.60;1.50;;;16.30;62.00;;;;;;4898564;29;20210;-68
2023/05/28 19:51:03;;;;;;;1.67;1.58;;;16.20;65.10;;;;;;4898418;29;20229;-68
2023/05/28 19:53:29;;;;;;;1.90;1.80;;;16.10;65.70;;;;;;4898473;29;20242;-67
2023/05/28 19:55:56;;;;;;;2.05;1.90;;;16.00;68.40;;;;;;4898399;29;20213;-67
2023/05/28 19:58:23;;;;;;;2.53;1.80;;;15.80;68.90;;;;;;4898305;29;20213;-67
2023/05/28 20:00:49;;;;;;;2.15;2.05;;;15.60;82.60;;;;;;4898437;29;20229;-67
2023/05/28 20:03:16;;;;;;;1.70;1.60;;;15.60;59.10;;;;;;4897892;29;20599;-69
2023/05/28 20:05:44;;;;;;;1.63;1.52;;;15.50;59.70;;;;;;4898272;29;20217;-70
2023/05/28 20:08:11;;;;;;;1.90;1.77;;;15.50;61.20;;;;;;4898338;29;20206;-68
2023/05/28 20:10:38;;;;;;;1.80;1.73;;;15.40;62.90;;;;;;4897960;29;20674;-69
2023/05/28 20:13:05;;;;;;;1.90;1.80;;;15.30;63.30;;;;;;4898346;29;20202;-68
2023/05/28 20:15:31;;;;;;;2.03;1.90;;;15.20;65.10;;;;;;4898200;29;20210;-68
2023/05/28 20:17:58;;;;;;;1.92;1.70;;;15.10;66.50;;;;;;4898675;29;20206;-68
2023/05/28 20:20:25;;;;;;;2.03;1.92;;;15.00;68.10;;;;;;4897704;29;20615;-68
2023/05/28 20:22:54;;;;;;;2.00;1.90;;;14.90;70.20;;;;;;4898018;29;20260;-68
2023/05/28 20:25:21;;;;;;;1.80;1.70;;;14.80;72.00;;;;;;4900698;29;20278;-68
2023/05/28 20:27:49;;;;;;;2.20;2.08;;;14.70;74.10;;;;;;4902022;29;20209;-68
2023/05/28 20:30:16;;;;;;;1.95;1.85;;;14.70;75.40;;;;;;4902027;29;20206;-68
2023/05/28 20:32:43;;;;;;;2.03;1.83;;;14.60;76.00;;;;;;4901975;29;20236;-68
2023/05/28 20:35:12;;;;;;;2.20;2.10;;;14.60;74.00;;;;;;4901800;29;20221;-68
2023/05/28 20:37:39;;;;;;;2.20;2.08;;;14.50;76.40;;;;;;4902612;29;20206;-68
2023/05/28 20:40:08;;;;;;;1.98;1.88;;;14.40;76.70;;;;;;4901814;29;20246;-68
2023/05/28 20:42:35;;;;;;;2.05;1.95;;;14.30;77.50;;;;;;4901659;29;20236;-68
2023/05/28 20:45:02;;;;;;;2.08;1.83;;;14.30;78.20;;;;;;4901831;29;20217;-68
2023/05/28 20:47:29;;;;;;;2.30;2.10;;;14.20;80.00;;;;;;4901700;29;20290;-68
2023/05/28 20:49:56;;;;;;;2.15;2.00;;;14.10;81.50;;;;;;4901649;29;20216;-68
2023/05/28 20:52:23;;;;;;;2.22;2.10;;;14.10;83.80;;;;;;4902324;29;20225;-68
2023/05/28 20:54:50;;;;;;;2.35;2.15;;;14.10;85.70;;;;;;4901233;29;20213;-69
2023/05/28 20:57:18;;;;;;;1.90;1.80;;;14.00;85.10;;;;;;4901879;29;20206;-69
2023/05/28 20:59:45;;;;;;;1.88;1.77;;;14.00;85.60;;;;;;4901457;29;20221;-69
2023/05/28 21:02:12;;;;;;;2.28;2.15;;;13.90;86.50;;;;;;4901419;29;20221;-69
2023/05/28 21:04:38;;;;;;;2.20;2.08;;;13.80;87.10;;;;;;4901462;29;20208;-68
2023/05/28 21:07:05;;;;;;;2.65;2.45;;;13.80;88.70;;;;;;4901107;29;20669;-68
2023/05/28 21:09:32;;;;;;;2.13;2.03;;;13.70;89.60;;;;;;4901382;29;20210;-68
2023/05/28 21:11:59;;;;;;;2.47;2.35;;;13.60;90.50;;;;;;4901156;29;20249;-68
2023/05/28 21:14:27;;;;;;;2.13;2.03;;;13.60;91.20;;;;;;4901254;29;20202;-68
2023/05/28 21:16:54;;;;;;;2.53;2.35;;;13.50;91.70;;;;;;4901206;29;20206;-69
2023/05/28 21:19:20;;;;;;;2.67;2.35;;;13.50;92.10;;;;;;4901156;29;20262;-68
2023/05/28 21:21:47;;;;;;;2.60;2.25;;;13.50;92.50;;;;;;4901099;29;20226;-68
2023/05/28 21:24:14;;;;;;;3.38;2.05;;;13.40;92.70;;;;;;4900941;29;20687;-68
2023/05/28 21:26:40;;;;;;;3.08;2.40;;;13.40;93.30;;;;;;4900940;29;20665;-68
2023/05/28 21:29:07;;;;;;;2.40;2.22;;;13.30;94.10;;;;;;4901245;29;20201;-69
2023/05/28 21:31:35;;;;;;;1.80;1.70;;;13.30;97.00;;;;;;4900905;29;20326;-69
2023/05/28 21:34:04;;;;;;;2.13;2.03;;;;;;;;;;4900657;29;20236;-68
2023/05/28 21:36:31;;;;;;;1.92;1.83;;;13.20;99.90;;;;;;4900061;29;20688;-68
2023/05/28 21:38:57;;;;;;;2.60;2.28;;;13.10;98.30;;;;;;4901089;29;20573;-68
2023/05/28 21:41:24;;;;;;;2.13;2.03;;;13.00;99.40;;;;;;4900857;29;20226;-68
2023/05/28 21:43:51;;;;;;;3.00;2.22;;;13.00;99.10;;;;;;4901152;29;20230;-68
2023/05/28 21:46:17;;;;;;;2.50;2.30;;;12.90;99.90;;;;;;4900482;29;20213;-69
2023/05/28 21:48:46;;;;;;;2.70;2.50;;;;;;;;;;4900851;29;20309;-69
2023/05/28 21:51:15;;;;;;;2.60;2.40;;;12.80;94.00;;;;;;4901349;29;20230;-70
2023/05/28 21:53:42;;;;;;;2.35;2.15;;;12.80;96.10;;;;;;4900523;29;20640;-69
2023/05/28 21:56:09;;;;;;;2.80;2.60;;;12.70;97.20;;;;;;4901000;29;20206;-69
2023/05/28 21:58:36;;;;;;;3.10;2.35;;;12.60;99.90;;;;;;4900623;29;20201;-69
2023/05/28 22:01:02;;;;;;;2.72;2.53;;;12.60;99.90;;;;;;4900561;29;20222;-70
2023/05/28 22:03:29;;;;;;;2.30;2.10;;;12.50;99.90;;;;;;4901655;29;20222;-69
2023/05/28 22:05:57;;;;;;;3.45;2.47;;;12.50;98.80;;;;;;4900742;29;20700;-69
2023/05/28 22:08:24;;;;;;;3.40;3.10;;;12.50;99.90;;;;;;4900895;29;20213;-69
2023/05/28 22:10:50;;;;;;;2.63;2.45;;;12.40;99.90;;;;;;4901032;29;20232;-69
2023/05/28 22:13:18;;;;;;;2.70;2.50;;;12.40;99.90;;;;;;4901841;29;20206;-69
2023/05/28 22:15:45;;;;;;;2.28;2.17;;;12.30;99.90;;;;;;4900488;29;20206;-69
2023/05/28 22:18:13;;;;;;;2.45;2.25;;;12.30;99.90;;;;;;4900340;29;20217;-69
2023/05/28 22:20:41;;;;;;;2.67;2.47;;;12.20;99.90;;;;;;4900110;29;20242;-70
2023/05/28 22:23:09;;;;;;;2.65;2.45;;;12.20;99.90;;;;;;4899975;29;20276;-70
2023/05/28 22:25:36;;;;;;;3.30;2.63;;;12.10;99.90;;;;;;4900092;29;20266;-70
2023/05/28 22:28:03;;;;;;;2.70;2.50;;;12.10;99.90;;;;;;4900055;29;20289;-70
2023/05/28 22:30:29;;;;;;;2.70;2.47;;;12.00;99.90;;;;;;4899998;29;20210;-71
2023/05/28 22:32:57;;;;;;;2.60;2.40;;;12.00;99.90;;;;;;4899556;29;20662;-70
2023/05/28 22:35:24;;;;;;;2.13;2.03;;;11.90;99.90;;;;;;4900423;29;20205;-70
2023/05/28 22:37:51;;;;;;;2.60;2.40;;;12.30;99.90;;;;;;4899546;29;20248;-70
2023/05/28 22:40:21;;;;;;;2.60;2.40;;;11.80;99.90;;;;;;4899873;29;20210;-70
2023/05/28 22:42:48;;;;;;;2.72;2.53;;;11.80;99.90;;;;;;4899660;29;20253;-70
2023/05/28 22:45:16;;;;;;;2.45;2.30;;;11.80;99.90;;;;;;4899761;29;20210;-70
